createdAt,value
2018-05-13T00:01:06.794Z,11.97
2018-05-13T00:04:19.646Z,11.93
2018-05-13T00:07:24.712Z,11.33
2018-05-13T00:10:27.452Z,11.87
2018-05-13T00:13:34.487Z,12.00
2018-05-13T00:16:37.374Z,11.87
2018-05-13T00:19:39.998Z,12.40
2018-05-13T00:22:42.620Z,11.97
2018-05-13T00:25:45.276Z,11.60
2018-05-13T00:28:47.939Z,11.87
2018-05-13T00:31:50.622Z,12.00
2018-05-13T00:34:53.194Z,13.27
2018-05-13T00:37:55.780Z,12.13
2018-05-13T00:40:58.362Z,13.10
2018-05-13T00:44:01.558Z,11.93
2018-05-13T00:47:04.109Z,12.17
2018-05-13T00:50:08.501Z,13.53
2018-05-13T00:53:11.148Z,13.10
2018-05-13T00:56:13.900Z,11.90
2018-05-13T00:59:16.619Z,12.30
2018-05-13T01:02:19.228Z,12.70
2018-05-13T01:05:21.886Z,14.53
2018-05-13T01:08:24.470Z,16.67
2018-05-13T01:11:27.102Z,13.10
2018-05-13T01:14:29.668Z,14.03
2018-05-13T01:17:32.283Z,14.03
2018-05-13T01:20:34.832Z,14.33
2018-05-13T01:23:37.389Z,15.10
2018-05-13T01:26:39.959Z,13.87
2018-05-13T01:29:42.540Z,13.90
2018-05-13T01:32:45.069Z,14.70
2018-05-13T01:35:47.622Z,13.77
2018-05-13T01:38:50.190Z,14.63
2018-05-13T01:41:52.868Z,14.10
2018-05-13T01:44:55.415Z,14.90
2018-05-13T01:47:57.976Z,14.73
2018-05-13T01:51:00.537Z,15.60
2018-05-13T01:54:03.096Z,15.50
2018-05-13T01:57:05.667Z,15.73
2018-05-13T02:00:09.168Z,15.60
2018-05-13T02:03:11.786Z,15.30
2018-05-13T02:06:14.400Z,15.60
2018-05-13T02:09:20.002Z,16.60
2018-05-13T02:12:22.687Z,16.10
2018-05-13T02:15:28.106Z,18.17
2018-05-13T02:18:30.665Z,15.83
2018-05-13T02:21:33.419Z,18.23
2018-05-13T02:24:45.354Z,17.60
2018-05-13T02:27:48.637Z,18.83
2018-05-13T02:30:53.215Z,17.43
2018-05-13T02:33:55.772Z,18.50
2018-05-13T02:36:59.191Z,19.20
2018-05-13T02:40:01.753Z,20.10
2018-05-13T02:43:04.761Z,19.13
2018-05-13T02:46:08.570Z,18.97
2018-05-13T02:49:11.161Z,18.33
2018-05-13T02:52:14.803Z,20.27
2018-05-13T02:55:17.555Z,20.27
2018-05-13T02:58:21.339Z,20.03
2018-05-13T03:01:24.824Z,19.80
2018-05-13T03:04:28.468Z,21.37
2018-05-13T03:07:31.109Z,20.10
2018-05-13T03:10:33.688Z,21.07
2018-05-13T03:13:36.285Z,21.23
2018-05-13T03:16:38.965Z,21.30
2018-05-13T03:19:41.538Z,21.07
2018-05-13T03:22:44.963Z,22.80
2018-05-13T03:25:47.649Z,21.70
2018-05-13T03:28:50.581Z,22.10
2018-05-13T03:31:53.142Z,22.33
2018-05-13T03:34:59.591Z,22.67
2018-05-13T03:38:02.162Z,21.83
2018-05-13T03:41:04.726Z,32.60
2018-05-13T03:44:07.270Z,40.20
2018-05-13T03:47:09.926Z,40.47
2018-05-13T03:50:12.431Z,31.60
2018-05-13T03:53:14.987Z,26.80
2018-05-13T03:56:17.557Z,26.83
2018-05-13T03:59:20.117Z,25.80
2018-05-13T04:02:22.720Z,25.93
2018-05-13T04:05:25.781Z,25.00
2018-05-13T04:08:48.847Z,24.23
2018-05-13T04:12:03.092Z,23.20
2018-05-13T04:15:17.350Z,25.20
2018-05-13T04:18:20.048Z,23.73
2018-05-13T04:21:22.605Z,24.03
2018-05-13T04:24:25.185Z,27.10
2018-05-13T04:27:27.754Z,28.30
2018-05-13T04:30:31.305Z,27.20
2018-05-13T04:33:33.836Z,25.23
2018-05-13T04:36:36.520Z,26.60
2018-05-13T04:39:39.089Z,27.60
2018-05-13T04:42:41.729Z,26.23
2018-05-13T04:45:44.290Z,27.20
2018-05-13T04:48:46.937Z,26.37
2018-05-13T04:51:49.509Z,44.70
2018-05-13T04:54:52.145Z,44.93
2018-05-13T04:57:54.838Z,37.80
2018-05-13T05:00:57.418Z,32.83
2018-05-13T05:03:59.978Z,42.30
2018-05-13T05:07:02.512Z,37.93
2018-05-13T05:10:05.150Z,41.00
2018-05-13T05:13:07.678Z,40.57
2018-05-13T05:16:10.174Z,45.37
2018-05-13T05:19:12.701Z,55.90
2018-05-13T05:22:15.277Z,39.60
2018-05-13T05:25:17.790Z,32.87
2018-05-13T05:28:20.414Z,31.00
2018-05-13T05:31:22.914Z,26.77
2018-05-13T05:34:25.471Z,41.03
2018-05-13T05:37:28.030Z,35.80
2018-05-13T05:40:30.529Z,37.60
2018-05-13T05:43:33.163Z,65.30
2018-05-13T05:46:35.707Z,72.57
2018-05-13T05:49:38.278Z,36.57
2018-05-13T05:52:40.876Z,31.30
2018-05-13T05:55:43.445Z,33.10
2018-05-13T05:58:46.995Z,29.43
2018-05-13T06:05:32.953Z,25.33
2018-05-13T06:08:36.875Z,19.93
2018-05-13T06:11:41.174Z,21.73
2018-05-13T09:40:36.380Z,5.90
2018-05-13T09:43:51.510Z,6.00
2018-05-13T09:46:54.097Z,14.57
2018-05-13T10:47:41.705Z,6.93
2018-05-13T10:50:49.485Z,18.80
2018-05-13T10:54:23.524Z,7.37
2018-05-13T11:06:42.039Z,4.33
2018-05-13T11:10:00.711Z,3.87
2018-05-13T11:13:03.387Z,3.67
2018-05-13T11:16:28.662Z,3.70
2018-05-13T11:30:23.339Z,4.10
2018-05-13T11:33:34.030Z,3.80
2018-05-13T11:40:17.014Z,4.30
2018-05-13T11:46:49.893Z,5.53
2018-05-13T11:50:08.972Z,4.00
2018-05-13T11:59:47.642Z,3.60
2018-05-13T12:03:02.465Z,3.80
2018-05-13T12:06:09.477Z,3.43
2018-05-13T12:09:52.294Z,3.90
2018-05-13T12:13:05.750Z,4.33
2018-05-13T12:16:09.813Z,4.23
2018-05-13T12:22:27.364Z,3.47
2018-05-13T12:34:32.395Z,8.30
2018-05-13T12:37:43.917Z,24.63
2018-05-13T12:41:01.026Z,5.83
2018-05-13T12:44:05.777Z,4.93
2018-05-13T12:47:09.654Z,4.20
2018-05-13T12:50:22.126Z,4.30
2018-05-13T12:54:05.004Z,3.90
2018-05-13T12:57:22.580Z,4.50
2018-05-13T13:03:32.119Z,10.90
2018-05-13T13:06:51.270Z,4.83
2018-05-13T13:10:08.814Z,4.80
2018-05-13T13:13:15.346Z,4.27
2018-05-13T13:16:26.956Z,4.30
2018-05-13T13:22:54.487Z,3.87
2018-05-13T13:26:03.719Z,4.30
2018-05-13T13:29:07.499Z,3.90
2018-05-13T13:32:19.045Z,3.97
2018-05-13T13:35:25.105Z,5.40
2018-05-13T13:38:31.672Z,32.37
2018-05-13T13:41:35.817Z,10.97
2018-05-13T13:44:39.138Z,6.07
2018-05-13T13:47:43.051Z,4.90
2018-05-13T13:50:45.770Z,4.03
2018-05-13T13:53:49.074Z,5.00
2018-05-13T13:56:51.866Z,16.40
2018-05-13T14:00:05.222Z,9.13
2018-05-13T14:03:12.915Z,4.40
2018-05-13T14:06:18.519Z,4.30
2018-05-13T14:09:21.385Z,4.30
2018-05-13T14:12:43.465Z,3.70
2018-05-13T14:15:47.239Z,3.83
2018-05-13T14:18:51.615Z,3.80
2018-05-13T14:21:58.341Z,4.13
2018-05-13T14:25:05.989Z,5.70
2018-05-13T14:28:16.457Z,26.47
2018-05-13T14:31:25.119Z,17.17
2018-05-13T14:34:29.194Z,6.07
2018-05-13T14:40:53.655Z,3.97
2018-05-13T14:47:26.981Z,3.93
2018-05-13T14:54:34.754Z,3.53
2018-05-13T14:57:58.531Z,9.20
2018-05-13T15:01:24.814Z,24.83
2018-05-13T15:08:15.377Z,24.50
2018-05-13T15:11:19.816Z,10.90
2018-05-13T15:17:51.705Z,3.90
2018-05-13T15:20:54.475Z,6.70
2018-05-13T15:23:58.391Z,13.90
2018-05-13T15:27:00.924Z,5.83
2018-05-13T15:30:03.475Z,4.93
2018-05-13T15:33:06.823Z,4.10
2018-05-13T15:36:09.378Z,4.03
2018-05-13T15:39:11.893Z,4.20
2018-05-13T15:42:14.469Z,11.23
2018-05-13T15:45:17.073Z,4.30
2018-05-13T15:48:21.327Z,3.80
2018-05-13T15:51:23.881Z,3.50
2018-05-13T15:54:26.405Z,3.20
2018-05-13T15:57:28.997Z,3.80
2018-05-13T16:00:31.599Z,8.00
2018-05-13T16:03:34.170Z,3.77
2018-05-13T16:06:36.774Z,5.27
2018-05-13T16:09:39.314Z,4.07
2018-05-13T16:12:41.847Z,10.67
2018-05-13T16:15:44.429Z,7.93
2018-05-13T16:18:46.956Z,4.20
2018-05-13T16:21:49.485Z,3.80
2018-05-13T16:24:52.036Z,3.37
2018-05-13T16:27:54.551Z,3.53
2018-05-13T16:30:57.196Z,3.70
2018-05-13T16:33:59.940Z,11.40
2018-05-13T16:37:02.467Z,14.20
2018-05-13T16:40:05.173Z,6.20
2018-05-13T16:43:07.722Z,8.67
2018-05-13T16:46:10.304Z,8.77
2018-05-13T16:49:12.858Z,4.67
2018-05-13T16:52:15.400Z,4.17
2018-05-13T16:55:17.957Z,5.67
2018-05-13T16:58:20.522Z,3.87
2018-05-13T17:01:23.055Z,4.37
2018-05-13T17:04:25.923Z,3.87
2018-05-13T17:07:28.609Z,4.43
2018-05-13T17:10:31.297Z,3.87
2018-05-13T17:13:33.881Z,3.70
2018-05-13T17:16:36.545Z,3.53
2018-05-13T17:19:39.104Z,3.60
2018-05-13T17:22:41.792Z,4.23
2018-05-13T17:25:44.396Z,3.77
2018-05-13T17:28:47.140Z,4.53
2018-05-13T17:31:49.720Z,4.80
2018-05-13T17:34:52.369Z,4.10
2018-05-13T17:37:55.022Z,5.17
2018-05-13T17:40:58.790Z,4.20
2018-05-13T17:44:02.422Z,3.20
2018-05-13T17:47:05.098Z,4.00
2018-05-13T17:50:08.280Z,3.80
2018-05-13T17:53:14.348Z,3.60
2018-05-13T17:56:16.950Z,3.63
2018-05-13T17:59:19.754Z,3.43
2018-05-13T18:02:22.627Z,7.27
2018-05-13T18:05:25.788Z,7.03
2018-05-13T18:08:28.624Z,3.77
2018-05-13T18:11:31.276Z,6.70
2018-05-13T18:14:34.083Z,5.90
2018-05-13T18:17:36.998Z,4.37
2018-05-13T18:20:40.272Z,4.07
2018-05-13T18:23:43.855Z,3.83
2018-05-13T18:26:47.204Z,4.40
2018-05-13T18:29:52.224Z,4.00
2018-05-13T18:32:55.102Z,4.03
2018-05-13T18:35:58.274Z,4.47
2018-05-13T18:39:03.394Z,4.67
2018-05-13T18:45:41.674Z,7.30
2018-05-13T18:48:45.498Z,7.47
2018-05-13T18:51:53.180Z,5.17
2018-05-13T18:54:56.941Z,4.70
2018-05-13T19:19:33.605Z,4.63
2018-05-13T19:29:45.360Z,6.37
2018-05-13T19:32:49.165Z,5.90
2018-05-13T19:35:51.908Z,8.67
2018-05-13T19:38:55.075Z,10.30
2018-05-13T19:41:57.990Z,6.57
2018-05-13T19:45:09.738Z,8.57
2018-05-13T19:48:18.365Z,7.43
2018-05-13T19:55:01.717Z,7.13
2018-05-13T19:58:04.418Z,7.53
2018-05-13T20:01:07.270Z,8.03
2018-05-13T20:04:09.989Z,7.20
2018-05-13T20:07:13.596Z,5.97
2018-05-13T20:10:16.495Z,5.23
2018-05-13T20:16:33.056Z,5.03
2018-05-13T20:19:46.464Z,11.57
2018-05-13T20:23:02.071Z,21.57
2018-05-13T20:26:04.766Z,5.53
2018-05-13T20:29:07.436Z,4.77
2018-05-13T20:32:12.539Z,5.30
2018-05-13T20:35:15.299Z,4.67
2018-05-13T20:38:19.058Z,4.77
2018-05-13T20:41:21.780Z,4.30
2018-05-13T20:44:33.583Z,4.87
2018-05-13T20:47:36.353Z,4.90
2018-05-13T20:50:38.993Z,4.63
2018-05-13T20:53:51.007Z,4.33
2018-05-13T20:57:07.210Z,4.87
2018-05-13T21:00:10.276Z,13.73
2018-05-13T21:03:12.857Z,12.67
2018-05-13T21:06:19.120Z,7.07
2018-05-13T21:10:48.987Z,4.53
2018-05-13T21:13:51.626Z,4.30
2018-05-13T21:16:54.209Z,4.83
2018-05-13T21:19:56.831Z,4.93
2018-05-13T21:22:59.415Z,5.00
2018-05-13T21:33:42.965Z,4.63
2018-05-13T21:36:45.525Z,4.83
2018-05-13T21:39:48.183Z,4.70
2018-05-13T21:42:50.823Z,4.50
2018-05-13T21:45:53.460Z,5.20
2018-05-13T21:48:56.072Z,4.70
2018-05-13T21:51:58.759Z,4.40
2018-05-13T21:55:01.404Z,17.73
2018-05-13T21:58:04.788Z,12.73
2018-05-13T22:01:09.799Z,6.20
2018-05-13T22:04:13.129Z,5.07
2018-05-13T22:07:15.683Z,4.83
2018-05-13T22:10:18.423Z,4.57
2018-05-13T22:13:21.057Z,4.80
2018-05-13T22:16:23.727Z,4.83
2018-05-13T22:19:26.480Z,4.97
2018-05-13T22:22:30.236Z,4.93
2018-05-13T22:25:33.950Z,4.90
2018-05-13T22:28:38.673Z,4.33
2018-05-13T22:31:44.314Z,5.20
2018-05-13T22:34:48.356Z,71.27
2018-05-13T22:48:01.247Z,5.00
2018-05-13T22:51:04.812Z,4.80
2018-05-13T22:54:08.418Z,4.73
2018-05-13T22:57:18.792Z,4.90
2018-05-13T23:00:21.384Z,4.73
2018-05-13T23:03:25.432Z,4.80
2018-05-13T23:06:30.926Z,5.20
2018-05-13T23:09:33.682Z,4.63
2018-05-13T23:12:36.854Z,5.17
2018-05-13T23:15:39.460Z,4.90
2018-05-13T23:18:42.865Z,5.07
2018-05-13T23:21:45.659Z,4.90
2018-05-13T23:24:48.271Z,4.73
2018-05-13T23:27:55.703Z,4.30
2018-05-13T23:30:58.240Z,4.73
2018-05-13T23:34:00.792Z,4.97
2018-05-13T23:37:03.359Z,4.80
2018-05-13T23:40:05.931Z,5.17
2018-05-13T23:43:08.468Z,5.20
2018-05-13T23:46:11.028Z,5.23
2018-05-13T23:49:13.583Z,5.17
2018-05-13T23:52:16.158Z,5.80
2018-05-13T23:55:18.729Z,5.30
2018-05-13T23:58:21.280Z,5.27
